sensor_id;sensor_type;location;lat;lon;timestamp;P1;durP1;ratioP1;P2;durP2;ratioP2
36827;SDS011;22766;48.042;11.192;2024-02-14T00:00:18;7.40;;;1.67;;
36827;SDS011;22766;48.042;11.192;2024-02-14T00:02:46;3.90;;;1.92;;
36827;SDS011;22766;48.042;11.192;2024-02-14T00:05:17;1.38;;;1.15;;
36827;SDS011;22766;48.042;11.192;2024-02-14T00:07:44;1.75;;;1.10;;
36827;SDS011;22766;48.042;11.192;2024-02-14T00:10:11;3.03;;;1.30;;
36827;SDS011;22766;48.042;11.192;2024-02-14T00:12:38;2.92;;;1.45;;
36827;SDS011;22766;48.042;11.192;2024-02-14T00:15:05;1.35;;;1.20;;
36827;SDS011;22766;48.042;11.192;2024-02-14T00:17:33;7.25;;;2.17;;
36827;SDS011;22766;48.042;11.192;2024-02-14T00:20:01;4.97;;;1.63;;
36827;SDS011;22766;48.042;11.192;2024-02-14T00:22:30;4.13;;;1.50;;
36827;SDS011;22766;48.042;11.192;2024-02-14T00:24:57;2.38;;;1.20;;
36827;SDS011;22766;48.042;11.192;2024-02-14T00:27:24;2.42;;;1.13;;
36827;SDS011;22766;48.042;11.192;2024-02-14T00:29:52;2.10;;;1.45;;
36827;SDS011;22766;48.042;11.192;2024-02-14T00:32:21;3.53;;;1.60;;
36827;SDS011;22766;48.042;11.192;2024-02-14T00:34:48;3.15;;;1.63;;
36827;SDS011;22766;48.042;11.192;2024-02-14T00:37:18;3.42;;;1.50;;
36827;SDS011;22766;48.042;11.192;2024-02-14T00:39:45;2.70;;;1.40;;
36827;SDS011;22766;48.042;11.192;2024-02-14T00:42:15;3.70;;;1.65;;
36827;SDS011;22766;48.042;11.192;2024-02-14T00:44:43;5.03;;;1.40;;
36827;SDS011;22766;48.042;11.192;2024-02-14T00:47:10;3.53;;;1.42;;
36827;SDS011;22766;48.042;11.192;2024-02-14T00:49:36;2.83;;;1.20;;
36827;SDS011;22766;48.042;11.192;2024-02-14T00:52:05;2.45;;;1.30;;
36827;SDS011;22766;48.042;11.192;2024-02-14T00:54:33;4.57;;;1.67;;
36827;SDS011;22766;48.042;11.192;2024-02-14T00:56:59;3.95;;;1.33;;
36827;SDS011;22766;48.042;11.192;2024-02-14T00:59:26;2.95;;;1.40;;
36827;SDS011;22766;48.042;11.192;2024-02-14T01:01:53;3.08;;;1.30;;
36827;SDS011;22766;48.042;11.192;2024-02-14T01:04:20;2.40;;;1.75;;
36827;SDS011;22766;48.042;11.192;2024-02-14T01:06:47;2.42;;;1.60;;
36827;SDS011;22766;48.042;11.192;2024-02-14T01:09:16;2.58;;;1.52;;
36827;SDS011;22766;48.042;11.192;2024-02-14T01:11:43;2.47;;;1.38;;
36827;SDS011;22766;48.042;11.192;2024-02-14T01:14:10;1.73;;;1.40;;
36827;SDS011;22766;48.042;11.192;2024-02-14T01:16:43;2.60;;;1.25;;
36827;SDS011;22766;48.042;11.192;2024-02-14T01:19:11;2.88;;;1.50;;
36827;SDS011;22766;48.042;11.192;2024-02-14T01:21:38;4.28;;;1.55;;
36827;SDS011;22766;48.042;11.192;2024-02-14T01:24:06;2.80;;;1.45;;
36827;SDS011;22766;48.042;11.192;2024-02-14T01:26:35;1.98;;;1.40;;
36827;SDS011;22766;48.042;11.192;2024-02-14T01:29:02;2.88;;;1.60;;
36827;SDS011;22766;48.042;11.192;2024-02-14T01:31:29;2.70;;;1.52;;
36827;SDS011;22766;48.042;11.192;2024-02-14T01:33:56;2.63;;;1.58;;
36827;SDS011;22766;48.042;11.192;2024-02-14T01:36:24;3.85;;;1.50;;
36827;SDS011;22766;48.042;11.192;2024-02-14T01:38:51;4.20;;;1.77;;
36827;SDS011;22766;48.042;11.192;2024-02-14T01:41:17;5.18;;;1.60;;
36827;SDS011;22766;48.042;11.192;2024-02-14T01:43:46;4.20;;;1.42;;
36827;SDS011;22766;48.042;11.192;2024-02-14T01:46:12;3.38;;;1.25;;
36827;SDS011;22766;48.042;11.192;2024-02-14T01:48:39;3.03;;;1.55;;
36827;SDS011;22766;48.042;11.192;2024-02-14T01:51:08;1.52;;;1.35;;
36827;SDS011;22766;48.042;11.192;2024-02-14T01:53:37;2.97;;;1.30;;
36827;SDS011;22766;48.042;11.192;2024-02-14T01:56:04;4.93;;;1.23;;
36827;SDS011;22766;48.042;11.192;2024-02-14T01:58:32;1.33;;;1.05;;
36827;SDS011;22766;48.042;11.192;2024-02-14T02:01:01;3.47;;;1.38;;
36827;SDS011;22766;48.042;11.192;2024-02-14T02:03:29;2.03;;;1.50;;
36827;SDS011;22766;48.042;11.192;2024-02-14T02:05:59;2.72;;;1.38;;
36827;SDS011;22766;48.042;11.192;2024-02-14T02:08:26;5.15;;;1.83;;
36827;SDS011;22766;48.042;11.192;2024-02-14T02:10:53;3.05;;;1.75;;
36827;SDS011;22766;48.042;11.192;2024-02-14T02:13:19;3.15;;;1.67;;
36827;SDS011;22766;48.042;11.192;2024-02-14T02:15:47;2.78;;;1.75;;
36827;SDS011;22766;48.042;11.192;2024-02-14T02:18:14;4.20;;;1.70;;
36827;SDS011;22766;48.042;11.192;2024-02-14T02:20:42;3.40;;;1.67;;
36827;SDS011;22766;48.042;11.192;2024-02-14T02:23:12;3.05;;;1.73;;
36827;SDS011;22766;48.042;11.192;2024-02-14T02:25:42;3.08;;;1.60;;
36827;SDS011;22766;48.042;11.192;2024-02-14T02:28:10;2.70;;;1.35;;
36827;SDS011;22766;48.042;11.192;2024-02-14T02:30:37;5.90;;;1.90;;
36827;SDS011;22766;48.042;11.192;2024-02-14T02:33:04;3.67;;;1.70;;
36827;SDS011;22766;48.042;11.192;2024-02-14T02:35:36;6.53;;;2.20;;
36827;SDS011;22766;48.042;11.192;2024-02-14T02:38:02;3.88;;;1.83;;
36827;SDS011;22766;48.042;11.192;2024-02-14T02:40:29;3.22;;;1.38;;
36827;SDS011;22766;48.042;11.192;2024-02-14T02:42:57;3.15;;;1.38;;
36827;SDS011;22766;48.042;11.192;2024-02-14T02:45:24;2.70;;;1.45;;
36827;SDS011;22766;48.042;11.192;2024-02-14T02:47:51;3.67;;;1.40;;
36827;SDS011;22766;48.042;11.192;2024-02-14T02:50:18;3.20;;;1.60;;
36827;SDS011;22766;48.042;11.192;2024-02-14T02:52:49;3.72;;;1.77;;
36827;SDS011;22766;48.042;11.192;2024-02-14T02:55:15;1.92;;;1.30;;
36827;SDS011;22766;48.042;11.192;2024-02-14T02:57:44;2.22;;;1.58;;
36827;SDS011;22766;48.042;11.192;2024-02-14T03:00:12;2.50;;;1.42;;
36827;SDS011;22766;48.042;11.192;2024-02-14T03:02:40;1.83;;;1.20;;
36827;SDS011;22766;48.042;11.192;2024-02-14T03:07:45;3.17;;;1.30;;
36827;SDS011;22766;48.042;11.192;2024-02-14T03:10:14;2.80;;;1.33;;
36827;SDS011;22766;48.042;11.192;2024-02-14T03:12:46;2.53;;;1.48;;
36827;SDS011;22766;48.042;11.192;2024-02-14T03:15:15;2.30;;;1.30;;
36827;SDS011;22766;48.042;11.192;2024-02-14T03:17:43;2.05;;;1.30;;
36827;SDS011;22766;48.042;11.192;2024-02-14T03:20:11;5.22;;;1.98;;
36827;SDS011;22766;48.042;11.192;2024-02-14T03:22:44;5.60;;;1.33;;
36827;SDS011;22766;48.042;11.192;2024-02-14T03:25:18;2.25;;;1.20;;
36827;SDS011;22766;48.042;11.192;2024-02-14T03:27:47;2.13;;;1.38;;
36827;SDS011;22766;48.042;11.192;2024-02-14T03:30:16;1.98;;;1.20;;
36827;SDS011;22766;48.042;11.192;2024-02-14T03:32:44;2.88;;;1.40;;
36827;SDS011;22766;48.042;11.192;2024-02-14T03:35:12;3.25;;;1.60;;
36827;SDS011;22766;48.042;11.192;2024-02-14T03:37:42;1.92;;;1.27;;
36827;SDS011;22766;48.042;11.192;2024-02-14T03:40:16;2.33;;;1.45;;
36827;SDS011;22766;48.042;11.192;2024-02-14T03:42:43;3.25;;;1.50;;
36827;SDS011;22766;48.042;11.192;2024-02-14T03:45:13;2.15;;;1.40;;
36827;SDS011;22766;48.042;11.192;2024-02-14T03:47:40;2.70;;;1.50;;
36827;SDS011;22766;48.042;11.192;2024-02-14T03:50:08;2.15;;;1.20;;
36827;SDS011;22766;48.042;11.192;2024-02-14T03:52:35;2.60;;;1.38;;
36827;SDS011;22766;48.042;11.192;2024-02-14T03:55:03;1.90;;;1.17;;
36827;SDS011;22766;48.042;11.192;2024-02-14T03:57:30;2.10;;;1.50;;
36827;SDS011;22766;48.042;11.192;2024-02-14T03:59:58;3.45;;;1.25;;
36827;SDS011;22766;48.042;11.192;2024-02-14T04:02:36;2.17;;;1.30;;
36827;SDS011;22766;48.042;11.192;2024-02-14T04:05:06;2.30;;;1.77;;
36827;SDS011;22766;48.042;11.192;2024-02-14T04:07:33;2.05;;;1.67;;
36827;SDS011;22766;48.042;11.192;2024-02-14T04:10:05;4.90;;;1.75;;
36827;SDS011;22766;48.042;11.192;2024-02-14T04:12:32;2.35;;;1.33;;
36827;SDS011;22766;48.042;11.192;2024-02-14T04:14:59;2.70;;;1.60;;
36827;SDS011;22766;48.042;11.192;2024-02-14T04:17:26;1.67;;;1.42;;
36827;SDS011;22766;48.042;11.192;2024-02-14T04:19:53;2.00;;;1.20;;
36827;SDS011;22766;48.042;11.192;2024-02-14T04:22:20;2.20;;;1.27;;
36827;SDS011;22766;48.042;11.192;2024-02-14T04:24:47;4.35;;;1.80;;
36827;SDS011;22766;48.042;11.192;2024-02-14T04:27:14;1.70;;;1.23;;
36827;SDS011;22766;48.042;11.192;2024-02-14T04:29:45;1.50;;;1.30;;
36827;SDS011;22766;48.042;11.192;2024-02-14T04:32:13;2.95;;;1.83;;
36827;SDS011;22766;48.042;11.192;2024-02-14T04:34:40;2.10;;;1.20;;
36827;SDS011;22766;48.042;11.192;2024-02-14T04:37:08;2.65;;;1.38;;
36827;SDS011;22766;48.042;11.192;2024-02-14T04:39:40;2.67;;;1.35;;
36827;SDS011;22766;48.042;11.192;2024-02-14T04:42:08;4.75;;;1.67;;
36827;SDS011;22766;48.042;11.192;2024-02-14T04:44:35;4.25;;;1.70;;
36827;SDS011;22766;48.042;11.192;2024-02-14T04:47:02;2.20;;;0.88;;
36827;SDS011;22766;48.042;11.192;2024-02-14T04:49:29;2.22;;;1.30;;
36827;SDS011;22766;48.042;11.192;2024-02-14T04:51:57;5.95;;;1.50;;
36827;SDS011;22766;48.042;11.192;2024-02-14T04:54:24;2.55;;;1.40;;
36827;SDS011;22766;48.042;11.192;2024-02-14T04:56:52;3.60;;;1.27;;
36827;SDS011;22766;48.042;11.192;2024-02-14T04:59:23;2.63;;;1.42;;
36827;SDS011;22766;48.042;11.192;2024-02-14T05:01:50;1.63;;;1.10;;
36827;SDS011;22766;48.042;11.192;2024-02-14T05:04:19;1.83;;;1.30;;
36827;SDS011;22766;48.042;11.192;2024-02-14T05:06:47;2.33;;;1.10;;
36827;SDS011;22766;48.042;11.192;2024-02-14T05:09:15;1.48;;;1.23;;
36827;SDS011;22766;48.042;11.192;2024-02-14T05:11:42;2.63;;;1.05;;
36827;SDS011;22766;48.042;11.192;2024-02-14T05:14:09;4.68;;;1.20;;
36827;SDS011;22766;48.042;11.192;2024-02-14T05:16:35;2.97;;;1.00;;
36827;SDS011;22766;48.042;11.192;2024-02-14T05:19:02;1.88;;;1.10;;
36827;SDS011;22766;48.042;11.192;2024-02-14T05:21:29;2.22;;;0.90;;
36827;SDS011;22766;48.042;11.192;2024-02-14T05:23:56;2.05;;;1.15;;
36827;SDS011;22766;48.042;11.192;2024-02-14T05:26:23;2.25;;;1.13;;
36827;SDS011;22766;48.042;11.192;2024-02-14T05:28:50;1.98;;;1.15;;
36827;SDS011;22766;48.042;11.192;2024-02-14T05:31:17;1.85;;;1.15;;
36827;SDS011;22766;48.042;11.192;2024-02-14T05:33:43;4.18;;;1.02;;
36827;SDS011;22766;48.042;11.192;2024-02-14T05:36:10;1.48;;;0.85;;
36827;SDS011;22766;48.042;11.192;2024-02-14T05:38:37;1.40;;;0.73;;
36827;SDS011;22766;48.042;11.192;2024-02-14T05:41:04;2.00;;;1.10;;
36827;SDS011;22766;48.042;11.192;2024-02-14T05:43:34;1.58;;;0.80;;
36827;SDS011;22766;48.042;11.192;2024-02-14T05:46:01;1.48;;;0.93;;
36827;SDS011;22766;48.042;11.192;2024-02-14T05:48:27;1.48;;;0.90;;
36827;SDS011;22766;48.042;11.192;2024-02-14T05:50:54;2.38;;;1.08;;
36827;SDS011;22766;48.042;11.192;2024-02-14T05:53:21;1.33;;;0.68;;
36827;SDS011;22766;48.042;11.192;2024-02-14T05:55:48;2.78;;;0.55;;
36827;SDS011;22766;48.042;11.192;2024-02-14T05:58:15;3.38;;;1.45;;
36827;SDS011;22766;48.042;11.192;2024-02-14T06:00:42;1.63;;;1.00;;
36827;SDS011;22766;48.042;11.192;2024-02-14T06:03:08;2.70;;;0.90;;
36827;SDS011;22766;48.042;11.192;2024-02-14T06:05:35;1.75;;;0.90;;
36827;SDS011;22766;48.042;11.192;2024-02-14T06:08:02;2.30;;;1.10;;
36827;SDS011;22766;48.042;11.192;2024-02-14T06:10:30;1.67;;;0.90;;
36827;SDS011;22766;48.042;11.192;2024-02-14T06:12:57;2.28;;;1.15;;
36827;SDS011;22766;48.042;11.192;2024-02-14T06:15:23;2.10;;;1.13;;
36827;SDS011;22766;48.042;11.192;2024-02-14T06:17:51;1.92;;;0.95;;
36827;SDS011;22766;48.042;11.192;2024-02-14T06:20:18;1.00;;;0.70;;
36827;SDS011;22766;48.042;11.192;2024-02-14T06:22:45;1.17;;;0.77;;
36827;SDS011;22766;48.042;11.192;2024-02-14T06:25:23;3.80;;;1.20;;
36827;SDS011;22766;48.042;11.192;2024-02-14T06:27:50;3.15;;;0.90;;
36827;SDS011;22766;48.042;11.192;2024-02-14T06:30:17;1.58;;;1.00;;
36827;SDS011;22766;48.042;11.192;2024-02-14T06:32:44;3.05;;;0.70;;
36827;SDS011;22766;48.042;11.192;2024-02-14T06:35:11;2.03;;;0.70;;
36827;SDS011;22766;48.042;11.192;2024-02-14T06:37:42;2.50;;;0.90;;
36827;SDS011;22766;48.042;11.192;2024-02-14T06:40:21;1.70;;;0.93;;
36827;SDS011;22766;48.042;11.192;2024-02-14T06:42:48;1.42;;;1.05;;
36827;SDS011;22766;48.042;11.192;2024-02-14T06:45:21;3.72;;;1.13;;
36827;SDS011;22766;48.042;11.192;2024-02-14T06:47:47;2.65;;;1.38;;
36827;SDS011;22766;48.042;11.192;2024-02-14T06:50:15;2.20;;;1.00;;
36827;SDS011;22766;48.042;11.192;2024-02-14T06:52:41;2.20;;;1.08;;
36827;SDS011;22766;48.042;11.192;2024-02-14T06:55:08;3.13;;;1.38;;
36827;SDS011;22766;48.042;11.192;2024-02-14T06:57:35;1.25;;;1.02;;
36827;SDS011;22766;48.042;11.192;2024-02-14T07:00:02;0.73;;;0.73;;
36827;SDS011;22766;48.042;11.192;2024-02-14T07:02:32;0.75;;;0.70;;
36827;SDS011;22766;48.042;11.192;2024-02-14T07:04:59;2.33;;;1.00;;
36827;SDS011;22766;48.042;11.192;2024-02-14T07:07:26;1.83;;;1.10;;
36827;SDS011;22766;48.042;11.192;2024-02-14T07:09:54;2.00;;;0.75;;
36827;SDS011;22766;48.042;11.192;2024-02-14T07:12:20;1.48;;;0.98;;
36827;SDS011;22766;48.042;11.192;2024-02-14T07:14:47;2.40;;;1.40;;
36827;SDS011;22766;48.042;11.192;2024-02-14T07:17:14;3.25;;;0.93;;
36827;SDS011;22766;48.042;11.192;2024-02-14T07:19:41;2.95;;;1.00;;
36827;SDS011;22766;48.042;11.192;2024-02-14T07:22:14;2.13;;;0.82;;
36827;SDS011;22766;48.042;11.192;2024-02-14T07:24:42;2.20;;;1.10;;
36827;SDS011;22766;48.042;11.192;2024-02-14T07:27:09;3.35;;;1.00;;
36827;SDS011;22766;48.042;11.192;2024-02-14T07:29:37;4.57;;;2.17;;
36827;SDS011;22766;48.042;11.192;2024-02-14T07:32:04;1.95;;;1.20;;
36827;SDS011;22766;48.042;11.192;2024-02-14T07:34:32;2.70;;;1.05;;
36827;SDS011;22766;48.042;11.192;2024-02-14T07:36:59;2.33;;;0.98;;
36827;SDS011;22766;48.042;11.192;2024-02-14T07:39:26;2.40;;;0.88;;
36827;SDS011;22766;48.042;11.192;2024-02-14T07:42:08;1.92;;;0.82;;
36827;SDS011;22766;48.042;11.192;2024-02-14T07:44:35;1.83;;;0.90;;
36827;SDS011;22766;48.042;11.192;2024-02-14T07:47:02;3.47;;;1.10;;
36827;SDS011;22766;48.042;11.192;2024-02-14T07:49:32;1.00;;;0.80;;
36827;SDS011;22766;48.042;11.192;2024-02-14T07:51:59;1.15;;;0.77;;
36827;SDS011;22766;48.042;11.192;2024-02-14T07:54:25;2.60;;;1.30;;
36827;SDS011;22766;48.042;11.192;2024-02-14T07:56:52;1.00;;;0.90;;
36827;SDS011;22766;48.042;11.192;2024-02-14T07:59:19;1.90;;;0.88;;
36827;SDS011;22766;48.042;11.192;2024-02-14T08:01:47;2.90;;;0.80;;
36827;SDS011;22766;48.042;11.192;2024-02-14T08:04:14;2.25;;;0.77;;
36827;SDS011;22766;48.042;11.192;2024-02-14T08:06:42;3.17;;;0.70;;
36827;SDS011;22766;48.042;11.192;2024-02-14T08:09:11;1.42;;;0.60;;
36827;SDS011;22766;48.042;11.192;2024-02-14T08:11:38;0.80;;;0.52;;
36827;SDS011;22766;48.042;11.192;2024-02-14T08:14:05;2.25;;;0.70;;
36827;SDS011;22766;48.042;11.192;2024-02-14T08:16:32;0.85;;;0.50;;
36827;SDS011;22766;48.042;11.192;2024-02-14T08:18:59;1.00;;;0.40;;
36827;SDS011;22766;48.042;11.192;2024-02-14T08:21:27;3.10;;;0.47;;
36827;SDS011;22766;48.042;11.192;2024-02-14T08:23:57;0.87;;;0.50;;
36827;SDS011;22766;48.042;11.192;2024-02-14T08:26:26;1.95;;;0.40;;
36827;SDS011;22766;48.042;11.192;2024-02-14T08:28:53;0.82;;;0.40;;
36827;SDS011;22766;48.042;11.192;2024-02-14T08:31:20;1.27;;;0.80;;
36827;SDS011;22766;48.042;11.192;2024-02-14T08:33:47;0.85;;;0.40;;
36827;SDS011;22766;48.042;11.192;2024-02-14T08:36:14;1.83;;;0.73;;
36827;SDS011;22766;48.042;11.192;2024-02-14T08:38:43;3.30;;;0.60;;
36827;SDS011;22766;48.042;11.192;2024-02-14T08:41:09;2.53;;;0.95;;
36827;SDS011;22766;48.042;11.192;2024-02-14T08:43:36;1.50;;;0.60;;
36827;SDS011;22766;48.042;11.192;2024-02-14T08:46:03;0.60;;;0.50;;
36827;SDS011;22766;48.042;11.192;2024-02-14T08:48:36;2.75;;;0.47;;
36827;SDS011;22766;48.042;11.192;2024-02-14T08:51:08;0.93;;;0.43;;
36827;SDS011;22766;48.042;11.192;2024-02-14T08:53:35;0.80;;;0.40;;
36827;SDS011;22766;48.042;11.192;2024-02-14T08:56:03;0.85;;;0.50;;
36827;SDS011;22766;48.042;11.192;2024-02-14T08:58:30;1.65;;;0.60;;
36827;SDS011;22766;48.042;11.192;2024-02-14T09:00:57;1.05;;;0.52;;
36827;SDS011;22766;48.042;11.192;2024-02-14T09:03:38;1.50;;;0.55;;
36827;SDS011;22766;48.042;11.192;2024-02-14T09:06:05;0.80;;;0.45;;
36827;SDS011;22766;48.042;11.192;2024-02-14T09:08:32;0.82;;;0.50;;
36827;SDS011;22766;48.042;11.192;2024-02-14T09:10:58;0.95;;;0.45;;
36827;SDS011;22766;48.042;11.192;2024-02-14T09:13:26;2.72;;;0.43;;
36827;SDS011;22766;48.042;11.192;2024-02-14T09:15:54;3.90;;;0.60;;
36827;SDS011;22766;48.042;11.192;2024-02-14T09:18:21;0.90;;;0.40;;
36827;SDS011;22766;48.042;11.192;2024-02-14T09:20:48;1.10;;;0.35;;
36827;SDS011;22766;48.042;11.192;2024-02-14T09:23:16;1.33;;;0.55;;
36827;SDS011;22766;48.042;11.192;2024-02-14T09:25:49;1.08;;;0.55;;
36827;SDS011;22766;48.042;11.192;2024-02-14T09:28:16;0.55;;;0.40;;
36827;SDS011;22766;48.042;11.192;2024-02-14T09:30:43;3.08;;;0.55;;
36827;SDS011;22766;48.042;11.192;2024-02-14T09:33:10;0.93;;;0.35;;
36827;SDS011;22766;48.042;11.192;2024-02-14T09:35:37;1.15;;;0.30;;
36827;SDS011;22766;48.042;11.192;2024-02-14T09:38:06;1.27;;;0.47;;
36827;SDS011;22766;48.042;11.192;2024-02-14T09:40:32;1.38;;;0.47;;
36827;SDS011;22766;48.042;11.192;2024-02-14T09:43:01;1.90;;;1.08;;
36827;SDS011;22766;48.042;11.192;2024-02-14T09:48:00;0.90;;;0.10;;
36827;SDS011;22766;48.042;11.192;2024-02-14T09:50:28;1.13;;;0.30;;
36827;SDS011;22766;48.042;11.192;2024-02-14T09:52:57;0.20;;;0.20;;
36827;SDS011;22766;48.042;11.192;2024-02-14T09:55:25;1.58;;;0.50;;
36827;SDS011;22766;48.042;11.192;2024-02-14T09:57:53;0.57;;;0.32;;
36827;SDS011;22766;48.042;11.192;2024-02-14T10:00:21;1.52;;;0.20;;
36827;SDS011;22766;48.042;11.192;2024-02-14T10:02:49;0.90;;;0.35;;
36827;SDS011;22766;48.042;11.192;2024-02-14T10:05:16;0.80;;;0.20;;
36827;SDS011;22766;48.042;11.192;2024-02-14T10:07:43;0.80;;;0.40;;
36827;SDS011;22766;48.042;11.192;2024-02-14T10:10:11;0.28;;;0.20;;
36827;SDS011;22766;48.042;11.192;2024-02-14T10:12:39;1.02;;;0.40;;
36827;SDS011;22766;48.042;11.192;2024-02-14T10:15:07;3.00;;;0.60;;
36827;SDS011;22766;48.042;11.192;2024-02-14T10:17:35;4.93;;;0.95;;
36827;SDS011;22766;48.042;11.192;2024-02-14T10:20:03;7.05;;;1.95;;
36827;SDS011;22766;48.042;11.192;2024-02-14T10:22:32;2.53;;;0.98;;
36827;SDS011;22766;48.042;11.192;2024-02-14T10:25:02;1.33;;;0.60;;
36827;SDS011;22766;48.042;11.192;2024-02-14T10:27:30;0.93;;;0.40;;
36827;SDS011;22766;48.042;11.192;2024-02-14T10:29:59;2.08;;;0.30;;
36827;SDS011;22766;48.042;11.192;2024-02-14T10:32:26;2.05;;;0.90;;
36827;SDS011;22766;48.042;11.192;2024-02-14T10:34:53;0.77;;;0.30;;
36827;SDS011;22766;48.042;11.192;2024-02-14T10:37:21;0.50;;;0.20;;
36827;SDS011;22766;48.042;11.192;2024-02-14T10:39:48;1.85;;;0.40;;
36827;SDS011;22766;48.042;11.192;2024-02-14T10:42:18;0.55;;;0.22;;
36827;SDS011;22766;48.042;11.192;2024-02-14T10:44:45;0.10;;;0.10;;
36827;SDS011;22766;48.042;11.192;2024-02-14T10:47:17;0.45;;;0.25;;
36827;SDS011;22766;48.042;11.192;2024-02-14T10:49:48;0.75;;;0.30;;
36827;SDS011;22766;48.042;11.192;2024-02-14T10:52:15;0.32;;;0.20;;
36827;SDS011;22766;48.042;11.192;2024-02-14T10:54:46;0.43;;;0.17;;
36827;SDS011;22766;48.042;11.192;2024-02-14T10:57:19;1.48;;;0.20;;
36827;SDS011;22766;48.042;11.192;2024-02-14T10:59:47;0.32;;;0.20;;
36827;SDS011;22766;48.042;11.192;2024-02-14T11:02:15;0.60;;;0.30;;
36827;SDS011;22766;48.042;11.192;2024-02-14T11:04:47;1.33;;;0.40;;
36827;SDS011;22766;48.042;11.192;2024-02-14T11:07:16;1.42;;;0.50;;
36827;SDS011;22766;48.042;11.192;2024-02-14T11:09:43;0.40;;;0.20;;
36827;SDS011;22766;48.042;11.192;2024-02-14T11:12:10;0.35;;;0.20;;
36827;SDS011;22766;48.042;11.192;2024-02-14T11:14:37;0.93;;;0.30;;
36827;SDS011;22766;48.042;11.192;2024-02-14T11:17:12;0.30;;;0.17;;
36827;SDS011;22766;48.042;11.192;2024-02-14T11:19:39;0.65;;;0.30;;
36827;SDS011;22766;48.042;11.192;2024-02-14T11:22:11;0.43;;;0.30;;
36827;SDS011;22766;48.042;11.192;2024-02-14T11:24:39;1.13;;;0.20;;
36827;SDS011;22766;48.042;11.192;2024-02-14T11:27:10;1.05;;;0.30;;
36827;SDS011;22766;48.042;11.192;2024-02-14T11:29:59;3.40;;;1.42;;
36827;SDS011;22766;48.042;11.192;2024-02-14T11:32:27;0.25;;;0.25;;
36827;SDS011;22766;48.042;11.192;2024-02-14T11:34:55;0.85;;;0.20;;
36827;SDS011;22766;48.042;11.192;2024-02-14T11:37:29;0.45;;;0.20;;
36827;SDS011;22766;48.042;11.192;2024-02-14T11:39:58;0.40;;;0.25;;
36827;SDS011;22766;48.042;11.192;2024-02-14T11:42:25;0.30;;;0.20;;
36827;SDS011;22766;48.042;11.192;2024-02-14T11:44:53;1.85;;;0.20;;
36827;SDS011;22766;48.042;11.192;2024-02-14T11:47:22;0.70;;;0.20;;
36827;SDS011;22766;48.042;11.192;2024-02-14T11:49:51;0.52;;;0.20;;
36827;SDS011;22766;48.042;11.192;2024-02-14T11:52:19;0.73;;;0.30;;
36827;SDS011;22766;48.042;11.192;2024-02-14T11:54:46;0.68;;;0.40;;
36827;SDS011;22766;48.042;11.192;2024-02-14T11:57:18;0.65;;;0.20;;
36827;SDS011;22766;48.042;11.192;2024-02-14T11:59:48;1.88;;;0.60;;
36827;SDS011;22766;48.042;11.192;2024-02-14T12:02:19;1.30;;;0.40;;
36827;SDS011;22766;48.042;11.192;2024-02-14T12:04:47;0.68;;;0.28;;
36827;SDS011;22766;48.042;11.192;2024-02-14T12:07:17;0.50;;;0.32;;
36827;SDS011;22766;48.042;11.192;2024-02-14T12:09:45;1.27;;;0.30;;
36827;SDS011;22766;48.042;11.192;2024-02-14T12:12:12;0.60;;;0.22;;
36827;SDS011;22766;48.042;11.192;2024-02-14T12:14:39;0.57;;;0.30;;
36827;SDS011;22766;48.042;11.192;2024-02-14T12:17:06;0.63;;;0.20;;
36827;SDS011;22766;48.042;11.192;2024-02-14T12:19:35;0.40;;;0.20;;
36827;SDS011;22766;48.042;11.192;2024-02-14T12:22:08;2.20;;;0.30;;
36827;SDS011;22766;48.042;11.192;2024-02-14T12:24:38;0.60;;;0.20;;
36827;SDS011;22766;48.042;11.192;2024-02-14T12:27:04;0.35;;;0.20;;
36827;SDS011;22766;48.042;11.192;2024-02-14T12:29:31;0.55;;;0.20;;
36827;SDS011;22766;48.042;11.192;2024-02-14T12:32:07;0.50;;;0.30;;
36827;SDS011;22766;48.042;11.192;2024-02-14T12:34:37;0.55;;;0.20;;
36827;SDS011;22766;48.042;11.192;2024-02-14T12:37:04;2.63;;;0.35;;
36827;SDS011;22766;48.042;11.192;2024-02-14T12:39:32;0.43;;;0.20;;
36827;SDS011;22766;48.042;11.192;2024-02-14T12:41:59;2.22;;;0.20;;
36827;SDS011;22766;48.042;11.192;2024-02-14T12:44:30;0.32;;;0.15;;
36827;SDS011;22766;48.042;11.192;2024-02-14T12:46:57;0.10;;;0.10;;
36827;SDS011;22766;48.042;11.192;2024-02-14T12:49:24;0.32;;;0.28;;
36827;SDS011;22766;48.042;11.192;2024-02-14T12:51:53;0.52;;;0.25;;
36827;SDS011;22766;48.042;11.192;2024-02-14T12:54:24;0.20;;;0.17;;
36827;SDS011;22766;48.042;11.192;2024-02-14T12:56:51;0.50;;;0.30;;
36827;SDS011;22766;48.042;11.192;2024-02-14T12:59:19;0.40;;;0.22;;
36827;SDS011;22766;48.042;11.192;2024-02-14T13:01:46;0.28;;;0.10;;
36827;SDS011;22766;48.042;11.192;2024-02-14T13:04:14;0.75;;;0.30;;
36827;SDS011;22766;48.042;11.192;2024-02-14T13:06:42;1.65;;;0.50;;
36827;SDS011;22766;48.042;11.192;2024-02-14T13:09:09;2.67;;;0.50;;
36827;SDS011;22766;48.042;11.192;2024-02-14T13:11:40;0.40;;;0.20;;
36827;SDS011;22766;48.042;11.192;2024-02-14T13:14:09;1.05;;;0.20;;
36827;SDS011;22766;48.042;11.192;2024-02-14T13:16:36;0.68;;;0.20;;
36827;SDS011;22766;48.042;11.192;2024-02-14T13:19:02;0.85;;;0.20;;
36827;SDS011;22766;48.042;11.192;2024-02-14T13:21:29;0.40;;;0.20;;
36827;SDS011;22766;48.042;11.192;2024-02-14T13:23:56;0.40;;;0.20;;
36827;SDS011;22766;48.042;11.192;2024-02-14T13:26:23;0.40;;;0.40;;
36827;SDS011;22766;48.042;11.192;2024-02-14T13:28:50;0.98;;;0.30;;
36827;SDS011;22766;48.042;11.192;2024-02-14T13:31:17;0.40;;;0.20;;
36827;SDS011;22766;48.042;11.192;2024-02-14T13:33:44;1.63;;;0.30;;
36827;SDS011;22766;48.042;11.192;2024-02-14T13:36:11;0.75;;;0.20;;
36827;SDS011;22766;48.042;11.192;2024-02-14T13:38:37;0.20;;;0.10;;
36827;SDS011;22766;48.042;11.192;2024-02-14T13:41:04;0.32;;;0.20;;
36827;SDS011;22766;48.042;11.192;2024-02-14T13:43:31;1.90;;;0.20;;
36827;SDS011;22766;48.042;11.192;2024-02-14T13:45:58;0.20;;;0.15;;
36827;SDS011;22766;48.042;11.192;2024-02-14T13:48:24;1.70;;;0.47;;
36827;SDS011;22766;48.042;11.192;2024-02-14T13:50:51;6.72;;;0.93;;
36827;SDS011;22766;48.042;11.192;2024-02-14T13:53:18;0.55;;;0.30;;
36827;SDS011;22766;48.042;11.192;2024-02-14T13:55:47;0.10;;;0.10;;
36827;SDS011;22766;48.042;11.192;2024-02-14T13:58:13;1.70;;;0.10;;
36827;SDS011;22766;48.042;11.192;2024-02-14T14:00:43;0.45;;;0.20;;
36827;SDS011;22766;48.042;11.192;2024-02-14T14:03:10;0.60;;;0.10;;
36827;SDS011;22766;48.042;11.192;2024-02-14T14:05:38;0.82;;;0.20;;
36827;SDS011;22766;48.042;11.192;2024-02-14T14:08:06;0.85;;;0.20;;
36827;SDS011;22766;48.042;11.192;2024-02-14T14:10:32;0.70;;;0.35;;
36827;SDS011;22766;48.042;11.192;2024-02-14T14:13:00;0.10;;;0.10;;
36827;SDS011;22766;48.042;11.192;2024-02-14T14:15:26;0.10;;;0.10;;
36827;SDS011;22766;48.042;11.192;2024-02-14T14:17:55;1.70;;;0.30;;
36827;SDS011;22766;48.042;11.192;2024-02-14T14:20:24;0.10;;;0.10;;
36827;SDS011;22766;48.042;11.192;2024-02-14T14:22:51;1.60;;;0.30;;
36827;SDS011;22766;48.042;11.192;2024-02-14T14:25:18;0.80;;;0.28;;
36827;SDS011;22766;48.042;11.192;2024-02-14T14:27:45;0.20;;;0.10;;
36827;SDS011;22766;48.042;11.192;2024-02-14T14:30:12;0.32;;;0.10;;
36827;SDS011;22766;48.042;11.192;2024-02-14T14:32:40;0.10;;;0.10;;
36827;SDS011;22766;48.042;11.192;2024-02-14T14:35:07;0.00;;;0.00;;
36827;SDS011;22766;48.042;11.192;2024-02-14T14:37:36;0.93;;;0.30;;
36827;SDS011;22766;48.042;11.192;2024-02-14T14:40:03;1.50;;;0.40;;
36827;SDS011;22766;48.042;11.192;2024-02-14T14:42:31;1.75;;;0.20;;